createdAt,value
2018-08-16T00:00:28.107Z,17.30
2018-08-16T00:02:56.922Z,17.30
2018-08-16T00:05:25.573Z,17.10
2018-08-16T00:07:54.016Z,17.10
2018-08-16T00:10:22.432Z,17.20
2018-08-16T00:12:51.236Z,17.10
2018-08-16T00:15:21.824Z,17.10
2018-08-16T00:17:50.375Z,17.10
2018-08-16T00:20:18.848Z,17.10
2018-08-16T00:22:47.723Z,17.10
2018-08-16T00:25:17.267Z,17.20
2018-08-16T00:27:47.203Z,17.20
2018-08-16T00:30:17.184Z,17.20
2018-08-16T00:32:46.043Z,17.20
2018-08-16T00:35:14.493Z,17.10
2018-08-16T00:37:43.869Z,17.00
2018-08-16T00:40:15.059Z,17.00
2018-08-16T00:42:43.534Z,17.00
2018-08-16T00:45:12.431Z,17.00
2018-08-16T00:47:40.851Z,17.00
2018-08-16T00:50:11.456Z,17.00
2018-08-16T00:52:39.922Z,16.90
2018-08-16T00:55:09.764Z,16.80
2018-08-16T00:57:38.627Z,16.70
2018-08-16T01:00:09.790Z,16.60
2018-08-16T01:02:38.239Z,16.60
2018-08-16T01:05:07.193Z,16.60
2018-08-16T01:07:35.700Z,16.60
2018-08-16T01:10:05.044Z,16.70
2018-08-16T01:12:33.476Z,16.70
2018-08-16T01:15:01.951Z,16.70
2018-08-16T01:17:30.369Z,16.60
2018-08-16T01:19:58.825Z,16.60
2018-08-16T01:22:27.254Z,16.60
2018-08-16T01:24:55.725Z,16.60
2018-08-16T01:27:24.171Z,16.50
2018-08-16T01:29:52.609Z,16.40
2018-08-16T01:32:21.753Z,16.50
2018-08-16T01:34:50.290Z,16.40
2018-08-16T01:37:18.730Z,16.40
2018-08-16T01:39:47.198Z,16.40
2018-08-16T01:42:16.148Z,16.40
2018-08-16T01:44:44.746Z,16.40
2018-08-16T01:47:13.172Z,16.40
2018-08-16T01:49:41.608Z,16.40
2018-08-16T01:52:10.033Z,16.40
2018-08-16T01:54:38.500Z,16.40
2018-08-16T01:57:07.017Z,16.40
2018-08-16T01:59:35.450Z,16.50
2018-08-16T02:02:03.899Z,16.50
2018-08-16T02:04:32.357Z,16.40
2018-08-16T02:07:01.853Z,16.40
2018-08-16T02:09:30.311Z,16.40
2018-08-16T02:11:59.596Z,16.40
2018-08-16T02:14:28.647Z,16.40
2018-08-16T02:16:57.073Z,16.30
2018-08-16T02:19:25.518Z,16.30
2018-08-16T02:21:53.960Z,16.20
2018-08-16T02:24:23.625Z,16.20
2018-08-16T02:26:52.105Z,16.20
2018-08-16T02:29:20.569Z,16.20
2018-08-16T02:31:48.984Z,16.20
2018-08-16T02:34:17.438Z,16.20
2018-08-16T02:36:47.669Z,16.20
2018-08-16T02:39:16.123Z,16.10
2018-08-16T02:41:44.549Z,16.00
2018-08-16T02:44:13.005Z,16.00
2018-08-16T02:46:41.450Z,16.00
2018-08-16T02:49:09.894Z,16.10
2018-08-16T02:51:38.314Z,16.10
2018-08-16T02:54:06.846Z,16.00
2018-08-16T02:56:35.276Z,16.00
2018-08-16T02:59:03.702Z,16.00
2018-08-16T03:01:32.181Z,15.90
2018-08-16T03:04:00.610Z,16.00
2018-08-16T03:06:29.044Z,16.00
2018-08-16T03:08:57.468Z,16.00
2018-08-16T03:11:25.918Z,16.00
2018-08-16T03:13:55.048Z,16.00
2018-08-16T03:16:23.512Z,16.00
2018-08-16T03:18:51.968Z,16.00
2018-08-16T03:21:20.405Z,15.90
2018-08-16T03:23:48.829Z,15.90
2018-08-16T03:26:17.261Z,15.90
2018-08-16T03:28:45.738Z,15.90
2018-08-16T03:31:14.217Z,15.90
2018-08-16T03:33:42.904Z,16.00
2018-08-16T03:36:12.134Z,16.00
2018-08-16T03:38:40.577Z,16.00
2018-08-16T03:41:09.033Z,16.00
2018-08-16T03:43:37.583Z,16.00
2018-08-16T03:46:06.057Z,15.90
2018-08-16T03:48:34.509Z,15.90
2018-08-16T03:51:03.841Z,16.00
2018-08-16T03:53:32.752Z,16.00
2018-08-16T03:56:01.230Z,16.00
2018-08-16T03:58:31.134Z,16.10
2018-08-16T04:00:59.569Z,16.10
2018-08-16T04:03:29.680Z,16.10
2018-08-16T04:05:58.814Z,16.10
2018-08-16T04:08:27.260Z,16.10
2018-08-16T04:10:55.740Z,16.00
2018-08-16T04:13:25.915Z,16.00
2018-08-16T04:15:54.901Z,16.00
2018-08-16T04:18:23.360Z,15.90
2018-08-16T04:20:51.807Z,16.00
2018-08-16T04:23:20.296Z,16.00
2018-08-16T04:25:48.802Z,16.00
2018-08-16T04:28:17.212Z,16.00
2018-08-16T04:30:45.664Z,16.00
2018-08-16T04:33:19.610Z,16.00
2018-08-16T04:35:50.570Z,16.00
2018-08-16T04:38:19.735Z,16.00
2018-08-16T04:40:48.786Z,16.00
2018-08-16T04:43:17.306Z,16.00
2018-08-16T04:45:46.045Z,16.10
2018-08-16T04:48:14.724Z,16.10
2018-08-16T04:50:43.220Z,16.20
2018-08-16T04:53:11.913Z,16.20
2018-08-16T04:55:43.589Z,16.30
2018-08-16T04:58:12.307Z,16.40
2018-08-16T05:00:40.940Z,16.60
2018-08-16T05:03:09.668Z,16.60
2018-08-16T05:05:38.183Z,16.60
2018-08-16T05:08:06.704Z,16.70
2018-08-16T05:10:35.155Z,16.90
2018-08-16T05:13:03.581Z,17.10
2018-08-16T05:15:32.000Z,17.10
2018-08-16T05:18:00.469Z,17.20
2018-08-16T05:20:28.902Z,17.40
2018-08-16T05:22:57.438Z,17.50
2018-08-16T05:25:26.720Z,17.70
2018-08-16T05:27:55.406Z,17.80
2018-08-16T05:30:24.877Z,17.90
2018-08-16T05:32:53.360Z,18.00
2018-08-16T05:35:21.801Z,18.10
2018-08-16T05:37:50.333Z,18.20
2018-08-16T05:40:18.852Z,18.40
2018-08-16T05:42:47.283Z,18.40
2018-08-16T05:45:15.785Z,18.50
2018-08-16T05:47:44.269Z,18.70
2018-08-16T05:50:13.240Z,18.80
2018-08-16T05:52:42.468Z,18.90
2018-08-16T05:55:10.919Z,19.10
2018-08-16T05:57:39.775Z,19.20
2018-08-16T06:00:11.582Z,19.30
2018-08-16T06:02:40.109Z,19.40
2018-08-16T06:05:09.656Z,19.60
2018-08-16T06:07:38.149Z,19.60
2018-08-16T06:10:07.872Z,19.80
2018-08-16T06:12:36.313Z,19.90
2018-08-16T06:15:05.788Z,20.20
2018-08-16T06:17:35.564Z,20.60
2018-08-16T06:20:05.870Z,21.00
2018-08-16T06:22:34.341Z,21.70
2018-08-16T06:25:02.838Z,22.30
2018-08-16T06:27:31.469Z,22.70
2018-08-16T06:29:59.878Z,22.90
2018-08-16T06:32:28.305Z,22.90
2018-08-16T06:34:56.737Z,22.90
2018-08-16T06:37:25.984Z,22.80
2018-08-16T06:39:54.886Z,22.60
2018-08-16T06:42:23.336Z,22.50
2018-08-16T06:44:51.785Z,22.40
2018-08-16T06:47:20.250Z,22.40
2018-08-16T06:49:48.705Z,22.40
2018-08-16T06:52:17.181Z,22.30
2018-08-16T06:54:45.613Z,22.30
2018-08-16T06:57:14.072Z,22.30
2018-08-16T06:59:42.498Z,22.20
2018-08-16T07:02:11.021Z,22.10
2018-08-16T07:04:39.440Z,22.00
2018-08-16T07:07:08.197Z,21.80
2018-08-16T07:09:36.693Z,21.80
2018-08-16T07:12:05.242Z,21.90
2018-08-16T07:14:33.667Z,22.00
2018-08-16T07:17:02.207Z,22.20
2018-08-16T07:19:30.645Z,22.40
2018-08-16T07:21:59.130Z,22.60
2018-08-16T07:24:28.531Z,23.00
2018-08-16T07:26:56.879Z,23.50
2018-08-16T07:29:25.313Z,23.90
2018-08-16T07:31:53.803Z,24.50
2018-08-16T07:34:22.271Z,25.40
2018-08-16T07:36:50.717Z,25.60
2018-08-16T07:39:19.189Z,25.60
2018-08-16T07:41:47.605Z,25.60
2018-08-16T07:44:16.114Z,25.60
2018-08-16T07:46:44.541Z,25.60
2018-08-16T07:49:13.006Z,25.80
2018-08-16T07:51:41.653Z,26.00
2018-08-16T07:54:10.014Z,26.30
2018-08-16T07:56:38.547Z,26.60
2018-08-16T08:01:35.163Z,27.10
2018-08-16T08:04:03.628Z,27.30
2018-08-16T08:06:32.071Z,27.70
2018-08-16T08:09:00.736Z,28.10
2018-08-16T08:11:29.073Z,28.40
2018-08-16T08:13:57.798Z,28.50
2018-08-16T08:16:26.283Z,28.30
2018-08-16T08:18:54.738Z,28.20
2018-08-16T08:21:23.211Z,28.10
2018-08-16T08:23:51.659Z,27.90
2018-08-16T08:26:20.169Z,27.70
2018-08-16T08:28:48.627Z,27.30
2018-08-16T08:31:17.047Z,27.10
2018-08-16T08:33:45.519Z,26.80
2018-08-16T08:36:25.225Z,26.60
2018-08-16T08:38:53.703Z,26.30
2018-08-16T08:41:22.145Z,26.20
2018-08-16T08:44:21.171Z,26.00
2018-08-16T08:46:54.124Z,26.00
2018-08-16T08:49:22.828Z,26.00
2018-08-16T08:51:52.212Z,26.00
2018-08-16T08:54:50.682Z,26.10
2018-08-16T08:57:31.011Z,26.20
2018-08-16T08:59:59.537Z,26.30
2018-08-16T09:02:27.986Z,26.50
2018-08-16T09:04:56.452Z,26.60
2018-08-16T09:07:25.305Z,26.60
2018-08-16T09:11:23.255Z,26.50
2018-08-16T09:14:05.502Z,26.50
2018-08-16T09:16:37.742Z,26.30
2018-08-16T09:19:06.971Z,26.20
2018-08-16T09:21:35.654Z,26.20
2018-08-16T09:24:04.153Z,26.40
2018-08-16T09:26:38.014Z,26.60
2018-08-16T09:30:38.855Z,26.70
2018-08-16T09:33:18.650Z,26.80
2018-08-16T09:35:47.097Z,27.20
2018-08-16T09:38:15.514Z,27.40
2018-08-16T09:40:43.946Z,27.30
2018-08-16T09:43:12.487Z,27.40
2018-08-16T09:46:59.137Z,27.50
2018-08-16T09:49:29.877Z,27.40
2018-08-16T09:51:58.325Z,27.70
2018-08-16T09:54:27.205Z,28.00
2018-08-16T09:56:56.576Z,28.40
2018-08-16T09:59:25.138Z,29.10
2018-08-16T10:06:50.982Z,30.30
2018-08-16T10:09:21.851Z,31.20
2018-08-16T10:11:50.418Z,31.50
2018-08-16T10:14:19.252Z,32.20
2018-08-16T10:16:47.703Z,31.80
2018-08-16T10:19:16.177Z,31.50
2018-08-16T10:21:44.663Z,31.20
2018-08-16T10:24:13.194Z,31.40
2018-08-16T10:26:41.653Z,31.50
2018-08-16T10:29:10.657Z,31.50
2018-08-16T10:31:39.262Z,31.90
2018-08-16T10:34:08.524Z,33.00
2018-08-16T10:36:36.971Z,33.40
2018-08-16T10:39:15.118Z,32.70
2018-08-16T10:41:43.807Z,31.30
2018-08-16T10:44:13.009Z,30.40
2018-08-16T10:46:41.577Z,29.70
2018-08-16T10:49:10.401Z,29.20
2018-08-16T10:51:38.882Z,28.90
2018-08-16T10:54:07.349Z,28.70
2018-08-16T10:56:35.897Z,28.60
2018-08-16T10:59:04.429Z,28.40
2018-08-16T11:01:32.889Z,28.20
2018-08-16T11:04:01.320Z,28.10
2018-08-16T11:06:29.747Z,28.00
2018-08-16T11:08:58.198Z,27.70
2018-08-16T11:11:26.751Z,27.70
2018-08-16T11:13:55.191Z,27.70
2018-08-16T11:16:23.764Z,27.70
2018-08-16T11:18:52.281Z,27.80
2018-08-16T11:21:20.784Z,27.60
2018-08-16T11:23:49.245Z,27.70
2018-08-16T11:26:17.669Z,27.60
2018-08-16T11:28:46.118Z,27.50
2018-08-16T11:31:14.548Z,27.50
2018-08-16T11:33:42.968Z,27.40
2018-08-16T11:36:11.413Z,27.40
2018-08-16T11:38:39.906Z,27.50
2018-08-16T11:41:08.333Z,27.50
2018-08-16T11:43:36.789Z,27.30
2018-08-16T11:46:05.480Z,27.20
2018-08-16T11:48:33.946Z,27.30
2018-08-16T11:51:02.384Z,27.30
2018-08-16T11:53:30.845Z,27.40
2018-08-16T11:55:59.268Z,27.40
2018-08-16T11:58:27.742Z,27.40
2018-08-16T12:00:56.301Z,27.60
2018-08-16T12:03:24.762Z,27.60
2018-08-16T12:05:53.248Z,27.60
2018-08-16T12:08:21.725Z,27.60
2018-08-16T12:10:50.157Z,27.60
2018-08-16T12:13:18.626Z,27.80
2018-08-16T12:15:47.144Z,27.60
2018-08-16T12:18:15.631Z,27.50
2018-08-16T12:20:44.102Z,27.50
2018-08-16T12:23:12.526Z,27.50
2018-08-16T12:25:41.017Z,27.40
2018-08-16T12:28:09.492Z,27.50
2018-08-16T12:30:38.052Z,27.50
2018-08-16T12:33:06.530Z,27.40
2018-08-16T12:35:34.973Z,27.40
2018-08-16T12:38:03.416Z,27.60
2018-08-16T12:40:32.015Z,27.60
2018-08-16T12:43:00.437Z,27.60
2018-08-16T12:45:28.964Z,27.70
2018-08-16T12:47:57.389Z,27.50
2018-08-16T12:50:25.861Z,27.70
2018-08-16T12:52:54.421Z,31.10
2018-08-16T12:55:22.884Z,27.70
2018-08-16T12:57:51.323Z,27.80
2018-08-16T13:00:20.159Z,27.90
2018-08-16T13:02:49.293Z,27.80
2018-08-16T13:05:17.995Z,27.80
2018-08-16T13:07:46.418Z,27.80
2018-08-16T13:10:15.481Z,27.80
2018-08-16T13:12:44.121Z,27.80
2018-08-16T13:15:12.587Z,27.80
2018-08-16T13:17:41.201Z,27.80
2018-08-16T13:20:10.628Z,27.90
2018-08-16T13:22:39.299Z,27.90
2018-08-16T13:25:10.074Z,27.80
2018-08-16T13:27:38.735Z,27.80
2018-08-16T13:30:08.544Z,27.80
2018-08-16T13:32:37.312Z,27.70
2018-08-16T13:35:05.794Z,27.70
2018-08-16T13:37:34.261Z,27.70
2018-08-16T13:40:02.777Z,27.70
2018-08-16T13:42:31.907Z,27.60
2018-08-16T13:45:00.302Z,27.70
2018-08-16T13:47:29.596Z,27.70
2018-08-16T13:49:58.400Z,27.70
2018-08-16T13:52:26.857Z,27.70
2018-08-16T13:54:55.329Z,27.70
2018-08-16T13:57:23.884Z,27.70
2018-08-16T13:59:52.341Z,27.90
2018-08-16T14:02:20.868Z,27.90
2018-08-16T14:04:49.297Z,27.90
2018-08-16T14:07:17.741Z,27.90
2018-08-16T14:09:46.193Z,27.90
2018-08-16T14:12:15.447Z,27.90
2018-08-16T14:14:44.453Z,28.00
2018-08-16T14:17:12.921Z,27.90
2018-08-16T14:19:41.341Z,27.90
2018-08-16T14:22:09.862Z,27.90
2018-08-16T14:24:38.338Z,27.90
2018-08-16T14:27:06.811Z,27.90
2018-08-16T14:29:35.234Z,27.90
2018-08-16T14:32:03.749Z,27.90
2018-08-16T14:34:32.178Z,27.90
2018-08-16T14:37:00.924Z,27.90
2018-08-16T14:39:29.666Z,27.90
2018-08-16T14:41:58.111Z,28.00
2018-08-16T14:44:26.529Z,27.90
2018-08-16T14:46:58.023Z,28.00
2018-08-16T14:49:27.624Z,28.00
2018-08-16T14:51:56.533Z,28.00
2018-08-16T14:54:24.995Z,28.00
2018-08-16T14:56:53.500Z,28.00
2018-08-16T14:59:21.922Z,27.90
2018-08-16T15:01:50.429Z,27.90
2018-08-16T15:04:18.865Z,28.00
2018-08-16T15:06:47.945Z,28.00
2018-08-16T15:09:17.394Z,28.00
2018-08-16T15:11:45.829Z,28.10
2018-08-16T15:14:14.266Z,28.10
2018-08-16T15:16:43.272Z,28.10
2018-08-16T15:19:11.689Z,28.20
2018-08-16T15:21:40.157Z,28.10
2018-08-16T15:24:10.468Z,28.20
2018-08-16T15:26:39.004Z,28.20
2018-08-16T15:29:07.417Z,28.10
2018-08-16T15:31:35.917Z,28.20
2018-08-16T15:34:04.429Z,28.10
2018-08-16T15:36:32.907Z,28.30
2018-08-16T15:39:01.364Z,28.30
2018-08-16T15:41:29.841Z,28.20
2018-08-16T15:43:58.265Z,28.20
2018-08-16T15:46:26.730Z,28.10
2018-08-16T15:48:55.165Z,28.30
2018-08-16T15:51:23.613Z,28.50
2018-08-16T15:53:52.067Z,28.40
2018-08-16T15:56:20.554Z,28.30
2018-08-16T15:58:48.969Z,28.20
2018-08-16T16:01:17.606Z,28.20
2018-08-16T16:03:46.065Z,28.20
2018-08-16T16:06:14.589Z,28.30
2018-08-16T16:08:42.964Z,28.30
2018-08-16T16:11:11.376Z,28.30
2018-08-16T16:13:39.843Z,28.30
2018-08-16T16:16:08.416Z,28.30
2018-08-16T16:18:36.953Z,28.30
2018-08-16T16:21:05.385Z,28.30
2018-08-16T16:23:33.875Z,28.30
2018-08-16T16:26:02.299Z,28.20
2018-08-16T16:28:30.820Z,28.20
2018-08-16T16:30:59.292Z,28.20
2018-08-16T16:33:27.815Z,28.10
2018-08-16T16:35:56.339Z,28.10
2018-08-16T16:38:24.795Z,28.20
2018-08-16T16:40:53.271Z,28.10
2018-08-16T16:43:21.743Z,28.10
2018-08-16T16:45:50.189Z,28.00
2018-08-16T16:48:18.644Z,28.00
2018-08-16T16:50:47.069Z,27.90
2018-08-16T16:53:15.686Z,27.90
2018-08-16T16:55:44.142Z,27.90
2018-08-16T16:58:12.605Z,27.90
2018-08-16T17:00:41.041Z,27.90
2018-08-16T17:03:10.984Z,27.80
2018-08-16T17:05:39.399Z,27.80
2018-08-16T17:08:07.848Z,27.80
2018-08-16T17:10:37.936Z,27.80
2018-08-16T17:13:06.401Z,27.80
2018-08-16T17:15:34.818Z,27.80
2018-08-16T17:18:03.343Z,27.70
2018-08-16T17:20:31.765Z,27.60
2018-08-16T17:23:00.204Z,27.60
2018-08-16T17:25:28.656Z,27.60
2018-08-16T17:27:57.152Z,27.50
2018-08-16T17:30:25.573Z,27.50
2018-08-16T17:32:54.049Z,27.50
2018-08-16T17:35:22.557Z,27.40
2018-08-16T17:37:51.005Z,27.30
2018-08-16T17:40:19.421Z,27.30
2018-08-16T17:42:47.921Z,27.20
2018-08-16T17:45:16.345Z,27.20
2018-08-16T17:47:44.817Z,27.20
2018-08-16T17:50:13.813Z,27.10
2018-08-16T17:52:42.472Z,27.10
2018-08-16T18:00:10.275Z,26.80
2018-08-16T18:02:38.791Z,26.80
2018-08-16T18:05:07.220Z,26.70
2018-08-16T18:07:35.699Z,26.60
2018-08-16T18:10:05.373Z,26.50
2018-08-16T18:12:34.205Z,26.40
2018-08-16T18:15:04.281Z,26.40
2018-08-16T18:17:33.035Z,26.20
2018-08-16T18:20:01.497Z,26.10
2018-08-16T18:22:29.986Z,26.00
2018-08-16T18:24:58.449Z,25.90
2018-08-16T18:27:26.913Z,25.90
2018-08-16T18:29:55.363Z,25.80
2018-08-16T18:32:25.781Z,25.80
2018-08-16T18:34:54.365Z,25.70
2018-08-16T18:37:22.796Z,25.60
2018-08-16T18:39:51.337Z,25.50
2018-08-16T18:42:19.751Z,25.50
2018-08-16T18:44:48.287Z,25.40
2018-08-16T18:47:16.679Z,25.20
2018-08-16T18:49:45.168Z,25.20
2018-08-16T18:52:13.609Z,25.10
2018-08-16T18:54:42.071Z,25.00
2018-08-16T18:57:10.505Z,24.90
2018-08-16T18:59:38.984Z,24.90
2018-08-16T19:02:07.551Z,24.80
2018-08-16T19:04:36.273Z,24.70
2018-08-16T19:07:04.745Z,24.70
2018-08-16T19:09:35.154Z,24.60
2018-08-16T19:12:03.757Z,24.50
2018-08-16T19:14:32.315Z,24.30
2018-08-16T19:17:00.890Z,24.30
2018-08-16T19:19:29.342Z,24.30
2018-08-16T19:21:57.794Z,24.20
2018-08-16T19:24:26.563Z,24.20
2018-08-16T19:26:56.060Z,24.10
2018-08-16T19:29:28.466Z,23.70
2018-08-16T19:32:04.483Z,23.70
2018-08-16T19:34:34.972Z,23.70
2018-08-16T19:37:03.712Z,23.60
2018-08-16T19:39:32.828Z,23.50
2018-08-16T19:42:01.781Z,23.50
2018-08-16T19:44:30.466Z,23.60
2018-08-16T19:46:59.186Z,23.50
2018-08-16T19:49:28.019Z,23.50
2018-08-16T19:51:57.083Z,23.40
2018-08-16T19:54:26.019Z,23.20
2018-08-16T19:56:55.046Z,23.10
2018-08-16T19:59:24.144Z,22.90
2018-08-16T20:01:53.256Z,22.60
2018-08-16T20:04:22.217Z,22.50
2018-08-16T20:06:50.991Z,22.50
2018-08-16T20:09:19.746Z,22.70
2018-08-16T20:11:48.572Z,22.60
2018-08-16T20:14:17.198Z,22.70
2018-08-16T20:16:46.254Z,22.70
2018-08-16T20:19:15.355Z,22.50
2018-08-16T20:21:44.116Z,22.40
2018-08-16T20:24:13.258Z,22.30
2018-08-16T20:26:42.133Z,22.20
2018-08-16T20:29:11.055Z,22.00
2018-08-16T20:31:39.722Z,22.10
2018-08-16T20:34:08.684Z,22.20
2018-08-16T20:36:37.457Z,22.20
2018-08-16T20:39:07.863Z,22.20
2018-08-16T20:41:36.820Z,22.10
2018-08-16T20:44:05.783Z,22.10
2018-08-16T20:46:34.960Z,22.10
2018-08-16T20:49:03.547Z,22.10
2018-08-16T20:51:32.281Z,22.00
2018-08-16T20:54:01.313Z,22.00
2018-08-16T20:56:30.002Z,21.90
2018-08-16T20:58:58.880Z,21.90
2018-08-16T21:01:27.451Z,22.00
2018-08-16T21:03:56.071Z,21.90
2018-08-16T21:06:24.738Z,21.80
2018-08-16T21:08:54.024Z,21.90
2018-08-16T21:11:22.649Z,21.90
2018-08-16T21:13:54.437Z,22.00
2018-08-16T21:16:23.097Z,21.90
2018-08-16T21:18:51.829Z,21.80
2018-08-16T21:21:20.322Z,21.80
2018-08-16T21:23:48.952Z,21.80
2018-08-16T21:26:17.552Z,21.70
2018-08-16T21:28:46.115Z,21.60
2018-08-16T21:31:14.593Z,21.60
2018-08-16T21:33:43.105Z,21.60
2018-08-16T21:36:11.705Z,21.50
2018-08-16T21:38:40.121Z,21.40
2018-08-16T21:41:08.588Z,21.50
2018-08-16T21:43:37.082Z,21.50
2018-08-16T21:46:05.650Z,21.40
2018-08-16T21:48:34.463Z,21.40
2018-08-16T21:51:02.899Z,21.40
2018-08-16T21:53:31.394Z,21.20
2018-08-16T21:55:59.840Z,21.20
2018-08-16T21:58:28.283Z,21.30
2018-08-16T22:01:00.976Z,21.30
2018-08-16T22:03:29.600Z,21.10
2018-08-16T22:06:04.963Z,20.90
2018-08-16T22:08:42.627Z,20.90
2018-08-16T22:11:11.500Z,20.90
2018-08-16T22:13:40.119Z,20.90
2018-08-16T22:16:08.599Z,20.90
2018-08-16T22:18:37.520Z,20.80
2018-08-16T22:21:06.005Z,20.70
2018-08-16T22:23:34.441Z,20.70
2018-08-16T22:26:03.005Z,20.80
2018-08-16T22:28:31.488Z,20.80
2018-08-16T22:31:00.416Z,20.70
2018-08-16T22:33:29.223Z,20.60
2018-08-16T22:35:57.784Z,20.60
2018-08-16T22:38:26.467Z,20.70
2018-08-16T22:40:54.974Z,20.60
2018-08-16T22:43:23.491Z,20.50
2018-08-16T22:45:51.984Z,20.40
2018-08-16T22:48:20.427Z,20.50
2018-08-16T22:50:48.871Z,20.60
2018-08-16T22:53:17.332Z,20.50
2018-08-16T22:55:45.796Z,20.40
2018-08-16T22:58:14.256Z,20.50
2018-08-16T23:00:42.723Z,20.50
2018-08-16T23:03:11.272Z,20.40
2018-08-16T23:05:39.700Z,20.40
2018-08-16T23:08:08.277Z,20.40
2018-08-16T23:10:36.750Z,20.40
2018-08-16T23:13:05.259Z,20.40
2018-08-16T23:15:33.802Z,20.40
2018-08-16T23:18:02.276Z,20.40
2018-08-16T23:20:30.875Z,20.50
2018-08-16T23:22:59.364Z,20.50
2018-08-16T23:25:27.869Z,20.40
2018-08-16T23:27:56.336Z,20.30
2018-08-16T23:30:24.818Z,20.30
2018-08-16T23:32:53.301Z,20.30
2018-08-16T23:35:21.897Z,20.30
2018-08-16T23:37:50.432Z,20.40
2018-08-16T23:40:18.860Z,20.40
2018-08-16T23:42:47.414Z,20.40
2018-08-16T23:45:15.969Z,20.50
2018-08-16T23:47:54.614Z,20.60
2018-08-16T23:50:23.151Z,20.60
2018-08-16T23:52:51.608Z,20.70
2018-08-16T23:55:20.106Z,20.80
2018-08-16T23:57:48.628Z,20.80
